createdAt,value
2019-03-10T00:00:22.269Z,50.28
2019-03-10T00:02:55.651Z,51.98
2019-03-10T00:05:26.971Z,52.80
2019-03-10T00:07:58.255Z,53.20
2019-03-10T00:10:29.447Z,53.85
2019-03-10T00:13:00.794Z,53.33
2019-03-10T00:15:32.131Z,54.20
2019-03-10T00:18:04.642Z,72.87
2019-03-10T00:20:40.975Z,52.15
2019-03-10T00:23:12.356Z,54.25
2019-03-10T00:25:43.558Z,51.95
2019-03-10T00:28:14.945Z,52.45
2019-03-10T00:30:48.847Z,50.38
2019-03-10T00:33:20.218Z,49.23
2019-03-10T00:35:51.451Z,50.60
2019-03-10T00:38:22.719Z,49.50
2019-03-10T00:41:06.387Z,51.60
2019-03-10T00:44:04.192Z,54.15
2019-03-10T00:46:48.579Z,62.30
2019-03-10T00:49:28.763Z,60.23
2019-03-10T00:52:12.238Z,57.95
2019-03-10T00:54:43.635Z,56.40
2019-03-10T00:57:16.036Z,53.20
2019-03-10T00:59:47.410Z,50.28
2019-03-10T01:02:18.891Z,50.70
2019-03-10T01:04:50.107Z,48.83
2019-03-10T01:07:21.329Z,49.60
2019-03-10T01:09:52.538Z,49.65
2019-03-10T01:12:23.778Z,50.90
2019-03-10T01:14:55.044Z,76.07
2019-03-10T01:17:26.183Z,53.58
2019-03-10T01:19:57.826Z,51.25
2019-03-10T01:22:29.356Z,53.35
2019-03-10T01:25:00.478Z,53.75
2019-03-10T01:27:31.711Z,53.33
2019-03-10T01:30:03.234Z,51.05
2019-03-10T01:32:44.329Z,53.17
2019-03-10T01:35:18.742Z,54.77
2019-03-10T01:37:49.860Z,52.20
2019-03-10T01:40:21.237Z,49.83
2019-03-10T01:42:52.598Z,48.65
2019-03-10T01:45:23.890Z,48.92
2019-03-10T01:47:55.037Z,47.62
2019-03-10T01:50:26.505Z,48.42
2019-03-10T01:52:57.873Z,46.88
2019-03-10T01:55:28.987Z,48.28
2019-03-10T01:58:00.245Z,49.40
2019-03-10T02:00:31.655Z,48.35
2019-03-10T02:03:03.285Z,48.48
2019-03-10T02:05:34.454Z,47.00
2019-03-10T02:08:05.749Z,46.63
2019-03-10T02:10:37.242Z,45.40
2019-03-10T02:13:08.360Z,45.70
2019-03-10T02:15:40.099Z,44.40
2019-03-10T02:18:11.434Z,46.02
2019-03-10T02:20:42.869Z,46.77
2019-03-10T02:23:13.883Z,47.23
2019-03-10T02:25:45.106Z,47.17
2019-03-10T02:28:16.764Z,48.75
2019-03-10T02:30:47.921Z,49.00
2019-03-10T02:33:19.077Z,47.30
2019-03-10T02:35:50.414Z,49.45
2019-03-10T02:38:21.481Z,47.48
2019-03-10T02:40:52.750Z,47.90
2019-03-10T02:43:24.437Z,49.00
2019-03-10T02:45:55.621Z,47.38
2019-03-10T02:48:26.805Z,44.58
2019-03-10T02:50:58.119Z,46.10
2019-03-10T02:53:29.233Z,47.30
2019-03-10T02:56:00.412Z,47.60
2019-03-10T02:58:31.762Z,48.55
2019-03-10T03:01:03.693Z,50.88
2019-03-10T03:03:34.724Z,51.33
2019-03-10T03:06:06.073Z,52.48
2019-03-10T03:08:37.412Z,53.23
2019-03-10T03:11:11.761Z,54.55
2019-03-10T03:13:41.693Z,55.50
2019-03-10T03:16:13.003Z,54.98
2019-03-10T03:18:44.378Z,54.55
2019-03-10T03:21:15.932Z,53.58
2019-03-10T03:23:47.142Z,53.08
2019-03-10T03:26:18.390Z,55.20
2019-03-10T03:28:49.611Z,55.80
2019-03-10T03:31:20.763Z,56.73
2019-03-10T03:33:52.173Z,56.85
2019-03-10T03:36:29.265Z,56.80
2019-03-10T03:39:13.091Z,56.13
2019-03-10T03:41:45.435Z,57.38
2019-03-10T03:44:17.022Z,60.60
2019-03-10T03:46:48.239Z,61.58
2019-03-10T03:49:19.582Z,63.30
2019-03-10T03:51:50.794Z,63.78
2019-03-10T03:54:23.294Z,66.82
2019-03-10T03:56:54.608Z,65.05
2019-03-10T03:59:25.825Z,63.05
2019-03-10T04:01:58.792Z,65.55
2019-03-10T04:04:30.033Z,64.07
2019-03-10T04:07:01.289Z,67.22
2019-03-10T04:09:32.584Z,64.70
2019-03-10T04:12:03.850Z,64.20
2019-03-10T04:14:34.966Z,65.03
2019-03-10T04:17:06.279Z,61.53
2019-03-10T04:19:37.625Z,58.87
2019-03-10T04:22:08.687Z,59.83
2019-03-10T04:24:40.624Z,59.13
2019-03-10T04:27:12.089Z,56.70
2019-03-10T04:29:43.263Z,55.83
2019-03-10T04:32:14.847Z,57.95
2019-03-10T04:34:46.136Z,57.50
2019-03-10T04:37:17.440Z,58.10
2019-03-10T04:39:48.653Z,57.65
2019-03-10T04:42:19.906Z,57.60
2019-03-10T04:44:51.306Z,58.58
2019-03-10T04:47:22.849Z,59.85
2019-03-10T04:49:54.154Z,58.33
2019-03-10T04:52:25.343Z,55.25
2019-03-10T04:55:04.288Z,55.52
2019-03-10T04:57:35.558Z,53.68
2019-03-10T05:00:07.879Z,53.33
2019-03-10T05:02:39.928Z,53.30
2019-03-10T05:05:16.920Z,53.65
2019-03-10T05:07:48.153Z,54.08
2019-03-10T05:10:19.420Z,54.60
2019-03-10T05:12:50.551Z,55.65
2019-03-10T05:15:21.727Z,54.65
2019-03-10T05:17:53.234Z,52.95
2019-03-10T05:20:24.381Z,52.75
2019-03-10T05:23:15.342Z,55.48
2019-03-10T05:25:46.631Z,52.90
2019-03-10T05:28:18.937Z,52.78
2019-03-10T05:30:50.251Z,52.93
2019-03-10T05:33:21.456Z,54.48
2019-03-10T05:35:52.650Z,55.78
2019-03-10T05:38:23.906Z,52.00
2019-03-10T05:40:55.142Z,51.13
2019-03-10T05:43:27.355Z,50.20
2019-03-10T05:45:58.592Z,54.10
2019-03-10T05:48:29.830Z,52.50
2019-03-10T05:51:00.933Z,160.57
2019-03-10T05:53:32.095Z,93.37
2019-03-10T05:56:03.368Z,51.77
2019-03-10T05:58:35.383Z,50.55
2019-03-10T06:01:06.908Z,50.63
2019-03-10T06:03:40.329Z,51.50
2019-03-10T06:06:15.630Z,52.10
2019-03-10T06:08:46.743Z,51.83
2019-03-10T06:11:17.932Z,51.28
2019-03-10T06:13:50.151Z,50.73
2019-03-10T06:16:21.405Z,50.88
2019-03-10T06:18:52.588Z,48.40
2019-03-10T06:21:23.907Z,48.63
2019-03-10T06:23:55.232Z,47.90
2019-03-10T06:26:26.848Z,46.25
2019-03-10T06:28:59.052Z,48.28
2019-03-10T06:31:30.357Z,48.58
2019-03-10T06:34:01.553Z,47.60
2019-03-10T06:36:33.786Z,44.38
2019-03-10T06:39:06.050Z,88.72
2019-03-10T06:41:37.244Z,43.23
2019-03-10T06:44:08.329Z,41.00
2019-03-10T06:46:39.553Z,41.75
2019-03-10T06:49:10.823Z,41.50
2019-03-10T06:51:42.143Z,45.00
2019-03-10T06:54:13.316Z,43.78
2019-03-10T06:56:44.656Z,45.43
2019-03-10T06:59:15.929Z,43.23
2019-03-10T07:01:47.118Z,41.92
2019-03-10T07:04:18.279Z,42.83
2019-03-10T07:06:49.415Z,42.30
2019-03-10T07:09:20.722Z,39.92
2019-03-10T07:11:52.031Z,41.15
2019-03-10T07:14:23.096Z,38.15
2019-03-10T07:16:54.510Z,36.42
2019-03-10T07:19:25.654Z,35.75
2019-03-10T07:21:58.808Z,34.83
2019-03-10T07:24:29.858Z,36.20
2019-03-10T07:27:02.286Z,35.40
2019-03-10T07:29:35.646Z,33.33
2019-03-10T07:32:15.029Z,28.32
2019-03-10T07:35:03.310Z,29.55
2019-03-10T07:37:42.235Z,28.57
2019-03-10T07:40:16.255Z,28.32
2019-03-10T07:42:53.329Z,27.75
2019-03-10T07:45:29.655Z,29.12
2019-03-10T07:48:20.771Z,30.23
2019-03-10T07:51:09.878Z,31.10
2019-03-10T07:53:42.980Z,32.90
2019-03-10T07:56:19.109Z,32.23
2019-03-10T07:59:01.255Z,30.08
2019-03-10T08:01:34.264Z,31.48
2019-03-10T08:04:07.181Z,31.93
2019-03-10T08:06:44.496Z,33.10
2019-03-10T08:09:17.521Z,33.73
2019-03-10T08:12:08.766Z,35.23
2019-03-10T08:14:44.598Z,34.03
2019-03-10T08:17:26.856Z,34.78
2019-03-10T08:20:05.560Z,36.20
2019-03-10T08:22:41.265Z,36.03
2019-03-10T08:25:14.735Z,37.10
2019-03-10T08:28:01.878Z,35.92
2019-03-10T08:30:38.883Z,38.20
2019-03-10T08:33:14.118Z,39.85
2019-03-10T08:35:46.922Z,39.80
2019-03-10T08:38:35.224Z,39.73
2019-03-10T08:41:11.100Z,37.73
2019-03-10T08:43:52.976Z,38.05
2019-03-10T08:46:29.292Z,37.33
2019-03-10T08:49:14.464Z,38.88
2019-03-10T08:51:52.956Z,39.03
2019-03-10T08:54:25.991Z,40.75
2019-03-10T08:57:10.020Z,39.03
2019-03-10T08:59:47.183Z,39.83
2019-03-10T09:02:19.912Z,39.95
2019-03-10T09:04:55.495Z,39.27
2019-03-10T09:07:31.320Z,38.17
2019-03-10T09:10:13.263Z,39.10
2019-03-10T09:12:52.016Z,39.65
2019-03-10T09:15:33.804Z,37.20
2019-03-10T09:18:12.678Z,38.30
2019-03-10T09:20:45.817Z,39.45
2019-03-10T09:23:21.689Z,36.75
2019-03-10T09:26:13.039Z,32.88
2019-03-10T09:28:49.005Z,30.92
2019-03-10T09:31:39.733Z,34.95
2019-03-10T09:34:30.558Z,36.30
2019-03-10T09:37:04.339Z,36.73
2019-03-10T09:39:37.943Z,34.90
2019-03-10T09:42:27.070Z,34.73
2019-03-10T09:45:05.832Z,33.00
2019-03-10T09:47:38.715Z,32.28
2019-03-10T09:50:28.117Z,30.40
2019-03-10T09:53:18.941Z,28.73
2019-03-10T09:55:51.829Z,26.80
2019-03-10T09:58:41.001Z,28.70
2019-03-10T10:01:16.652Z,23.10
2019-03-10T10:03:58.589Z,21.80
2019-03-10T10:06:37.609Z,21.12
2019-03-10T10:09:16.043Z,19.60
2019-03-10T10:12:13.401Z,19.10
2019-03-10T10:14:58.673Z,19.07
2019-03-10T10:17:34.220Z,18.80
2019-03-10T10:20:10.730Z,17.48
2019-03-10T10:22:46.388Z,16.95
2019-03-10T10:25:29.771Z,17.23
2019-03-10T10:28:02.876Z,17.20
2019-03-10T10:30:38.691Z,15.78
2019-03-10T10:33:14.494Z,15.05
2019-03-10T10:35:50.336Z,13.95
2019-03-10T10:38:37.632Z,13.28
2019-03-10T10:41:27.800Z,12.98
2019-03-10T10:44:22.137Z,13.48
2019-03-10T10:46:58.383Z,15.08
2019-03-10T10:49:43.301Z,14.53
2019-03-10T10:52:34.609Z,14.50
2019-03-10T10:55:25.421Z,14.23
2019-03-10T11:00:33.054Z,19.98
2019-03-10T11:03:06.355Z,13.58
2019-03-10T11:05:49.043Z,12.55
2019-03-10T11:08:24.620Z,12.03
2019-03-10T11:11:03.723Z,12.93
2019-03-10T11:13:44.382Z,12.70
2019-03-10T11:16:29.397Z,11.57
2019-03-10T11:19:18.452Z,11.48
2019-03-10T11:22:09.702Z,11.43
2019-03-10T11:24:46.145Z,12.40
2019-03-10T11:27:19.979Z,11.78
2019-03-10T11:29:53.046Z,11.78
2019-03-10T11:32:26.062Z,11.60
2019-03-10T11:35:05.236Z,11.65
2019-03-10T11:40:26.088Z,11.05
2019-03-10T11:43:05.227Z,10.80
2019-03-10T11:45:40.474Z,11.55
2019-03-10T11:48:22.169Z,11.68
2019-03-10T11:51:00.730Z,11.10
2019-03-10T11:53:36.482Z,10.45
2019-03-10T11:56:27.985Z,11.15
2019-03-10T11:59:00.933Z,11.38
2019-03-10T12:01:36.655Z,11.00
2019-03-10T12:04:10.500Z,11.57
2019-03-10T12:06:51.549Z,11.68
2019-03-10T12:09:24.060Z,12.03
2019-03-10T12:11:55.725Z,12.05
2019-03-10T12:14:26.953Z,11.43
2019-03-10T12:17:00.720Z,10.00
2019-03-10T12:19:32.052Z,9.95
2019-03-10T12:22:04.967Z,9.83
2019-03-10T12:24:36.763Z,9.50
2019-03-10T12:27:08.224Z,9.98
2019-03-10T12:29:39.441Z,9.83
2019-03-10T12:32:10.742Z,9.65
2019-03-10T12:34:42.232Z,9.48
2019-03-10T12:37:13.408Z,10.35
2019-03-10T12:39:44.473Z,9.90
2019-03-10T12:42:15.604Z,10.13
2019-03-10T12:44:47.000Z,9.40
2019-03-10T12:47:18.545Z,9.48
2019-03-10T12:49:49.716Z,9.55
2019-03-10T12:52:21.003Z,8.93
2019-03-10T12:54:52.299Z,8.63
2019-03-10T12:57:23.574Z,8.03
2019-03-10T12:59:54.870Z,8.50
2019-03-10T13:02:27.578Z,8.35
2019-03-10T13:04:58.824Z,8.45
2019-03-10T13:07:32.127Z,8.95
2019-03-10T13:10:03.106Z,9.38
2019-03-10T13:12:34.439Z,10.45
2019-03-10T13:15:10.977Z,11.20
2019-03-10T13:17:42.180Z,11.68
2019-03-10T13:20:13.749Z,12.90
2019-03-10T13:22:45.244Z,11.25
2019-03-10T13:25:17.563Z,8.85
2019-03-10T13:28:01.200Z,8.25
2019-03-10T13:30:37.687Z,8.80
2019-03-10T13:33:41.468Z,8.10
2019-03-10T13:36:19.311Z,8.80
2019-03-10T13:39:08.990Z,10.50
2019-03-10T13:42:04.710Z,11.48
2019-03-10T13:44:28.288Z,10.90
2019-03-10T13:46:58.015Z,11.50
2019-03-10T13:49:29.149Z,11.85
2019-03-10T13:52:01.546Z,12.05
2019-03-10T13:54:33.969Z,12.40
2019-03-10T13:57:05.163Z,12.50
2019-03-10T13:59:36.483Z,12.53
2019-03-10T14:02:07.671Z,12.73
2019-03-10T14:04:39.053Z,13.08
2019-03-10T14:07:10.539Z,12.20
2019-03-10T14:09:41.693Z,14.07
2019-03-10T14:12:12.859Z,13.98
2019-03-10T14:14:44.212Z,13.00
2019-03-10T14:17:15.491Z,13.70
2019-03-10T14:19:46.890Z,12.53
2019-03-10T14:22:18.367Z,13.38
2019-03-10T14:24:49.758Z,15.72
2019-03-10T14:27:21.067Z,13.68
2019-03-10T14:29:52.191Z,13.43
2019-03-10T14:32:24.652Z,13.55
2019-03-10T14:34:55.938Z,13.48
2019-03-10T14:37:27.183Z,13.98
2019-03-10T14:39:58.397Z,9.40
2019-03-10T14:42:30.722Z,6.60
2019-03-10T14:45:01.656Z,4.45
2019-03-10T14:47:34.033Z,5.20
2019-03-10T14:50:07.773Z,4.75
2019-03-10T14:52:38.790Z,4.22
2019-03-10T14:55:18.758Z,8.78
2019-03-10T14:57:50.004Z,10.68
2019-03-10T15:00:29.155Z,13.28
2019-03-10T15:03:00.459Z,14.93
2019-03-10T15:05:31.603Z,13.95
2019-03-10T15:08:03.936Z,14.90
2019-03-10T15:10:35.153Z,10.78
2019-03-10T15:13:06.295Z,6.05
2019-03-10T15:15:37.394Z,4.67
2019-03-10T15:18:08.616Z,4.03
2019-03-10T15:20:39.769Z,4.30
2019-03-10T15:23:10.983Z,4.80
2019-03-10T15:25:42.084Z,3.98
2019-03-10T15:28:13.214Z,3.95
2019-03-10T15:30:44.365Z,3.67
2019-03-10T15:33:15.649Z,4.40
2019-03-10T15:35:46.838Z,4.70
2019-03-10T15:38:17.976Z,5.25
2019-03-10T15:40:49.276Z,5.37
2019-03-10T15:43:20.433Z,6.40
2019-03-10T15:45:51.614Z,6.47
2019-03-10T15:48:22.777Z,8.88
2019-03-10T15:50:54.080Z,8.93
2019-03-10T15:53:26.254Z,9.18
2019-03-10T15:55:57.422Z,9.13
2019-03-10T15:58:28.725Z,7.75
2019-03-10T16:00:59.947Z,8.50
2019-03-10T16:03:32.046Z,11.85
2019-03-10T16:06:03.441Z,13.83
2019-03-10T16:08:35.159Z,12.80
2019-03-10T16:11:06.360Z,10.95
2019-03-10T16:13:38.520Z,12.73
2019-03-10T16:16:09.876Z,14.65
2019-03-10T16:18:41.311Z,25.25
2019-03-10T16:21:12.442Z,33.95
2019-03-10T16:23:43.640Z,54.45
2019-03-10T16:26:14.861Z,59.05
2019-03-10T16:28:46.628Z,58.73
2019-03-10T16:31:18.173Z,40.35
2019-03-10T16:33:53.293Z,43.42
2019-03-10T16:36:24.635Z,33.18
2019-03-10T16:39:03.021Z,30.90
2019-03-10T16:41:43.274Z,29.10
2019-03-10T16:44:14.817Z,17.77
2019-03-10T16:46:47.416Z,18.87
2019-03-10T16:49:18.823Z,16.67
2019-03-10T16:51:51.087Z,13.78
2019-03-10T16:54:22.398Z,13.50
2019-03-10T16:56:53.595Z,11.10
2019-03-10T16:59:24.942Z,11.00
2019-03-10T17:01:57.752Z,11.25
2019-03-10T17:04:29.227Z,11.38
2019-03-10T17:07:00.417Z,11.05
2019-03-10T17:09:31.869Z,12.82
2019-03-10T17:12:03.073Z,11.38
2019-03-10T17:14:34.235Z,11.63
2019-03-10T17:17:05.577Z,11.28
2019-03-10T17:19:36.990Z,15.98
2019-03-10T17:22:08.279Z,18.95
2019-03-10T17:24:39.497Z,12.43
2019-03-10T17:27:10.893Z,10.90
2019-03-10T17:29:42.122Z,8.00
2019-03-10T17:32:13.148Z,6.12
2019-03-10T17:34:44.448Z,5.87
2019-03-10T17:37:15.709Z,11.03
2019-03-10T17:39:46.913Z,5.78
2019-03-10T17:42:17.965Z,84.90
2019-03-10T17:44:49.371Z,9.78
2019-03-10T17:47:20.496Z,4.45
2019-03-10T17:49:51.615Z,3.27
2019-03-10T17:52:22.700Z,4.28
2019-03-10T17:54:54.570Z,3.95
2019-03-10T17:57:25.498Z,3.83
2019-03-10T17:59:56.694Z,3.20
2019-03-10T18:02:27.720Z,25.85
2019-03-10T18:04:59.084Z,7.72
2019-03-10T18:07:30.114Z,3.27
2019-03-10T18:10:01.359Z,3.40
2019-03-10T18:12:32.623Z,4.72
2019-03-10T18:15:09.890Z,4.03
2019-03-10T18:17:47.913Z,4.25
2019-03-10T18:20:20.475Z,4.37
2019-03-10T18:22:51.835Z,7.75
2019-03-10T18:25:23.247Z,9.40
2019-03-10T18:27:54.292Z,10.15
2019-03-10T18:30:28.507Z,9.03
2019-03-10T18:32:59.801Z,11.60
2019-03-10T18:35:31.214Z,13.10
2019-03-10T18:38:03.447Z,12.45
2019-03-10T18:40:34.512Z,9.55
2019-03-10T18:43:05.612Z,6.22
2019-03-10T18:45:36.620Z,4.47
2019-03-10T18:48:07.703Z,4.72
2019-03-10T18:50:38.809Z,4.08
2019-03-10T18:53:09.982Z,4.58
2019-03-10T18:55:41.328Z,3.85
2019-03-10T18:58:12.558Z,21.60
2019-03-10T19:00:43.718Z,4.87
2019-03-10T19:03:14.873Z,4.70
2019-03-10T19:05:45.997Z,5.53
2019-03-10T19:08:17.191Z,6.80
2019-03-10T19:10:48.798Z,8.15
2019-03-10T19:13:20.478Z,9.83
2019-03-10T19:15:51.678Z,13.18
2019-03-10T19:18:23.423Z,16.40
2019-03-10T19:20:54.920Z,20.25
2019-03-10T19:23:26.557Z,21.97
2019-03-10T19:25:58.312Z,21.48
2019-03-10T19:28:29.823Z,21.82
2019-03-10T19:31:01.955Z,18.37
2019-03-10T19:33:33.084Z,17.65
2019-03-10T19:36:04.377Z,15.78
2019-03-10T19:38:35.724Z,14.98
2019-03-10T19:41:07.545Z,12.18
2019-03-10T19:43:39.499Z,11.60
2019-03-10T19:46:10.798Z,11.20
2019-03-10T19:48:42.094Z,11.33
2019-03-10T19:51:13.703Z,11.78
2019-03-10T19:53:44.865Z,12.70
2019-03-10T19:56:16.249Z,11.97
2019-03-10T19:58:47.464Z,12.75
2019-03-10T20:01:18.730Z,13.13
2019-03-10T20:03:50.109Z,13.32
2019-03-10T20:06:21.217Z,11.85
2019-03-10T20:08:52.566Z,11.50
2019-03-10T20:11:23.787Z,12.20
2019-03-10T20:13:55.182Z,12.70
2019-03-10T20:16:26.543Z,12.70
2019-03-10T20:18:57.798Z,12.70
2019-03-10T20:21:30.587Z,13.20
2019-03-10T20:24:01.883Z,12.05
2019-03-10T20:26:33.022Z,10.75
2019-03-10T20:29:04.408Z,9.65
2019-03-10T20:31:35.648Z,8.28
2019-03-10T20:34:06.942Z,7.75
2019-03-10T20:36:39.038Z,9.55
2019-03-10T20:39:10.308Z,12.78
2019-03-10T20:41:41.554Z,20.52
2019-03-10T20:44:12.963Z,23.90
2019-03-10T20:46:45.335Z,23.38
2019-03-10T20:49:16.599Z,23.87
2019-03-10T20:51:47.861Z,24.43
2019-03-10T20:54:19.214Z,20.02
2019-03-10T20:56:50.748Z,20.00
2019-03-10T20:59:22.080Z,19.30
2019-03-10T21:01:53.412Z,63.40
2019-03-10T21:04:24.682Z,24.30
2019-03-10T21:06:56.055Z,22.65
2019-03-10T21:09:27.584Z,17.82
2019-03-10T21:11:58.774Z,10.72
2019-03-10T21:14:29.970Z,9.60
2019-03-10T21:17:01.153Z,9.25
2019-03-10T21:19:32.275Z,10.10
2019-03-10T21:22:03.528Z,9.68
2019-03-10T21:24:35.705Z,16.10
2019-03-10T21:27:07.223Z,9.60
2019-03-10T21:29:38.842Z,8.78
2019-03-10T21:32:10.075Z,7.50
2019-03-10T21:34:41.277Z,6.80
2019-03-10T21:37:12.402Z,6.28
2019-03-10T21:39:43.664Z,6.35
2019-03-10T21:42:14.886Z,6.28
2019-03-10T21:44:45.795Z,5.60
2019-03-10T21:47:17.042Z,5.40
2019-03-10T21:49:48.085Z,5.42
2019-03-10T21:52:19.363Z,4.97
2019-03-10T21:54:50.431Z,5.10
2019-03-10T21:57:21.541Z,4.85
2019-03-10T21:59:52.559Z,5.12
2019-03-10T22:02:23.746Z,5.50
2019-03-10T22:04:54.925Z,4.92
2019-03-10T22:07:26.914Z,4.67
2019-03-10T22:09:57.889Z,5.05
2019-03-10T22:12:29.074Z,4.87
2019-03-10T22:15:00.004Z,5.30
2019-03-10T22:17:31.556Z,7.37
2019-03-10T22:20:02.929Z,5.25
2019-03-10T22:22:37.124Z,4.05
2019-03-10T22:25:12.876Z,4.33
2019-03-10T22:27:45.914Z,4.17
2019-03-10T22:30:24.672Z,4.17
2019-03-10T22:32:56.271Z,3.98
2019-03-10T22:35:27.563Z,3.98
2019-03-10T22:37:58.829Z,3.75
2019-03-10T22:40:32.705Z,4.12
2019-03-10T22:43:03.758Z,4.05
2019-03-10T22:45:34.847Z,4.47
2019-03-10T22:48:05.936Z,4.45
2019-03-10T22:50:37.055Z,5.42
2019-03-10T22:53:09.289Z,6.42
2019-03-10T22:55:40.280Z,6.97
2019-03-10T22:58:12.281Z,8.35
2019-03-10T23:00:47.826Z,9.83
2019-03-10T23:03:20.547Z,10.48
2019-03-10T23:05:51.755Z,10.18
2019-03-10T23:08:23.003Z,11.30
2019-03-10T23:10:54.297Z,11.63
2019-03-10T23:13:25.640Z,11.73
2019-03-10T23:15:56.850Z,26.40
2019-03-10T23:18:29.305Z,10.98
2019-03-10T23:21:00.534Z,10.68
2019-03-10T23:23:31.887Z,9.53
2019-03-10T23:26:02.867Z,11.03
2019-03-10T23:28:34.013Z,10.70
2019-03-10T23:31:05.243Z,11.20
2019-03-10T23:33:36.585Z,11.70
2019-03-10T23:36:07.639Z,12.10
2019-03-10T23:38:38.839Z,12.15
2019-03-10T23:41:10.154Z,11.63
2019-03-10T23:43:41.319Z,10.78
2019-03-10T23:46:12.375Z,12.53
2019-03-10T23:48:43.718Z,12.15
2019-03-10T23:51:15.176Z,11.40
2019-03-10T23:53:46.270Z,11.48
2019-03-10T23:56:17.400Z,12.53
2019-03-10T23:58:50.551Z,13.43
